Time;durP1;ratioP1;P1;durP2;ratioP2;P2;SDS_P1;SDS_P2;PMS_P1;PMS_P2;Temp;Humidity;BMP_temperature;BMP_pressure;BME280_temperature;BME280_humidity;BME280_pressure;Samples;Min_cycle;Max_cycle;Signal;HPM_P1;HPM_P2
2023/05/26 00:00:04;;;;;;;7.78;1.48;;;7.80;99.90;;;;;;5073106;28;20090;-62
2023/05/26 00:02:30;;;;;;;8.40;1.50;;;7.80;99.90;;;;;;5071870;28;20041;-62
2023/05/26 00:05:01;;;;;;;9.35;1.92;;;7.80;99.90;;;;;;5055412;28;20037;-62
2023/05/26 00:07:27;;;;;;;1.73;0.90;;;7.80;1.00;;;;;;5072727;28;20120;-63
2023/05/26 00:09:52;;;;;;;12.57;1.60;;;7.80;99.90;;;;;;5072650;28;20194;-63
2023/05/26 00:12:19;;;;;;;7.10;1.83;;;7.90;99.90;;;;;;5072676;28;20101;-66
2023/05/26 00:14:46;;;;;;;3.40;1.27;;;8.20;99.90;;;;;;5073028;28;20430;-62
2023/05/26 00:17:12;;;;;;;7.50;1.45;;;7.70;99.90;;;;;;5054938;28;20123;-62
2023/05/26 00:19:38;;;;;;;6.25;1.38;;;7.30;99.90;;;;;;5072959;28;20120;-63
2023/05/26 00:22:05;;;;;;;11.70;1.70;;;7.70;1.00;;;;;;5072957;28;20040;-62
2023/05/26 00:24:30;;;;;;;2.67;1.63;;;7.90;1.00;;;;;;5072972;28;20036;-63
2023/05/26 00:26:56;;;;;;;6.75;1.95;;;7.60;99.90;;;;;;5072888;28;20119;-62
2023/05/26 00:29:21;;;;;;;5.90;1.60;;;7.70;99.90;;;;;;5072632;28;20041;-63
2023/05/26 00:31:47;;;;;;;4.53;1.20;;;7.40;99.90;;;;;;5072588;28;20036;-62
2023/05/26 00:34:13;;;;;;;2.60;1.05;;;7.70;99.90;;;;;;5072579;28;20083;-63
2023/05/26 00:36:38;;;;;;;15.82;1.63;;;7.70;99.90;;;;;;5072788;28;20049;-63
2023/05/26 00:39:04;;;;;;;9.70;1.48;;;7.70;1.00;;;;;;5072473;28;20119;-62
2023/05/26 00:41:30;;;;;;;4.53;1.10;;;7.70;1.00;;;;;;5072816;28;20459;-63
2023/05/26 00:43:55;;;;;;;4.82;1.67;;;7.60;58.30;;;;;;5072762;28;20456;-62
2023/05/26 00:46:21;;;;;;;4.75;1.55;;;7.60;99.90;;;;;;5072749;28;20037;-63
2023/05/26 00:48:47;;;;;;;7.30;2.20;;;7.60;1.00;;;;;;5072372;28;20040;-62
2023/05/26 00:51:13;;;;;;;8.35;1.70;;;7.20;38.50;;;;;;5072646;28;20168;-63
2023/05/26 00:53:42;;;;;;;5.60;1.02;;;7.60;1.00;;;;;;5072359;28;20040;-63
2023/05/26 00:56:11;;;;;;;9.30;1.90;;;7.50;99.90;;;;;;5072633;28;20032;-63
2023/05/26 00:58:37;;;;;;;4.07;1.90;;;7.30;99.90;;;;;;5072157;28;20051;-64
2023/05/26 01:01:02;;;;;;;8.23;1.63;;;7.50;1.00;;;;;;5072608;28;20040;-63
2023/05/26 01:03:29;;;;;;;4.78;1.17;;;7.50;35.90;;;;;;5072480;28;20038;-63
2023/05/26 01:05:55;;;;;;;11.23;2.15;;;8.30;99.90;;;;;;5072459;28;20036;-62
2023/05/26 01:08:21;;;;;;;7.78;1.55;;;7.10;1.00;;;;;;5072515;28;20086;-63
2023/05/26 01:10:46;;;;;;;5.95;1.25;;;7.40;99.90;;;;;;5054621;28;20124;-63
2023/05/26 01:13:18;;;;;;;9.40;1.30;;;7.40;1.00;;;;;;5072125;28;20083;-63
2023/05/26 01:15:56;;;;;;;4.95;1.63;;;7.40;1.00;;;;;;5072378;28;20044;-62
2023/05/26 01:18:29;;;;;;;16.15;1.45;;;7.40;1.00;;;;;;5054443;28;20072;-62
2023/05/26 01:21:08;;;;;;;14.93;1.60;;;7.40;99.90;;;;;;5072388;28;20044;-62
2023/05/26 01:23:47;;;;;;;7.63;1.58;;;7.40;1.00;;;;;;5074779;28;20043;-62
2023/05/26 01:26:28;;;;;;;11.15;2.20;;;7.30;1.00;;;;;;5058063;28;20084;-62
2023/05/26 01:29:06;;;;;;;5.10;1.70;;;7.40;99.90;;;;;;5058017;28;20059;-62
2023/05/26 01:31:33;;;;;;;11.55;1.83;;;7.30;99.90;;;;;;5058076;28;20036;-63
2023/05/26 01:34:00;;;;;;;9.45;1.63;;;7.30;99.90;;;;;;5075672;28;20131;-63
2023/05/26 01:36:28;;;;;;;10.45;1.88;;;7.30;1.00;;;;;;5057616;28;20033;-63
2023/05/26 01:38:54;;;;;;;13.10;1.67;;;7.20;1.00;;;;;;5075502;28;20040;-62
2023/05/26 01:42:02;;;;;;;7.65;2.00;;;7.30;99.90;;;;;;5075777;28;20051;-63
2023/05/26 01:44:32;;;;;;;8.13;1.65;;;7.20;99.90;;;;;;5075773;28;20075;-63
2023/05/26 01:46:58;;;;;;;6.00;1.85;;;7.20;99.90;;;;;;5075676;28;20127;-62
2023/05/26 01:49:28;;;;;;;5.72;1.67;;;7.10;99.90;;;;;;5074274;28;20047;-62
2023/05/26 01:51:57;;;;;;;8.82;1.63;;;7.10;99.90;;;;;;5057506;28;20044;-63
2023/05/26 01:54:26;;;;;;;8.68;1.50;;;6.90;46.80;;;;;;5075187;28;20047;-62
2023/05/26 01:56:56;;;;;;;3.47;1.30;;;7.20;99.90;;;;;;5075480;28;20036;-63
2023/05/26 01:59:24;;;;;;;5.82;1.88;;;7.20;99.90;;;;;;5075185;28;20442;-63
2023/05/26 02:01:50;;;;;;;9.85;1.42;;;6.90;99.90;;;;;;5075390;28;20039;-62
2023/05/26 02:04:16;;;;;;;7.50;1.60;;;7.20;99.90;;;;;;5075227;28;20032;-62
2023/05/26 02:06:41;;;;;;;4.07;1.17;;;7.10;99.90;;;;;;5075310;28;20393;-62
2023/05/26 02:09:07;;;;;;;13.98;1.85;;;7.10;99.90;;;;;;5075142;28;20055;-63
2023/05/26 02:11:33;;;;;;;6.50;1.48;;;7.00;99.90;;;;;;5056871;28;20553;-63
2023/05/26 02:13:59;;;;;;;11.07;1.98;;;7.10;99.90;;;;;;5075101;28;20044;-62
2023/05/26 02:16:26;;;;;;;4.93;1.20;;;7.20;99.90;;;;;;5074809;28;20036;-63
2023/05/26 02:18:52;;;;;;;9.57;1.45;;;7.50;99.90;;;;;;5056884;28;20051;-63
2023/05/26 02:21:18;;;;;;;7.93;1.25;;;7.40;99.90;;;;;;5074915;28;20032;-63
2023/05/26 02:23:44;;;;;;;7.45;1.67;;;7.10;99.90;;;;;;5074687;28;20514;-63
2023/05/26 02:26:10;;;;;;;2.40;1.15;;;7.10;99.90;;;;;;5074831;28;20036;-63
2023/05/26 02:28:39;;;;;;;4.18;1.55;;;7.10;99.90;;;;;;5074879;28;20059;-63
2023/05/26 02:31:05;;;;;;;7.43;1.60;;;7.10;99.90;;;;;;5074682;28;20391;-63
2023/05/26 02:33:31;;;;;;;6.15;1.77;;;6.90;99.90;;;;;;5074244;28;20048;-63
2023/05/26 02:35:57;;;;;;;5.53;1.42;;;7.10;99.90;;;;;;5074697;28;20041;-62
2023/05/26 02:38:23;;;;;;;5.22;1.33;;;7.20;99.90;;;;;;5074243;28;20499;-62
2023/05/26 02:40:49;;;;;;;3.80;1.63;;;7.10;99.90;;;;;;5074627;28;20396;-62
2023/05/26 02:43:16;;;;;;;4.97;1.67;;;6.80;99.90;;;;;;5074549;28;20115;-62
2023/05/26 02:45:41;;;;;;;12.68;1.90;;;7.10;99.90;;;;;;5074453;28;20041;-63
2023/05/26 02:48:07;;;;;;;7.97;1.33;;;7.10;99.90;;;;;;5072971;28;20392;-63
2023/05/26 02:50:33;;;;;;;8.70;1.77;;;7.10;99.90;;;;;;5073207;28;20436;-62
2023/05/26 02:52:58;;;;;;;5.72;1.50;;;7.10;1.00;;;;;;5074356;28;20044;-65
2023/05/26 02:55:24;;;;;;;9.95;1.63;;;7.20;52.20;;;;;;5056102;28;20050;-63
2023/05/26 02:57:51;;;;;;;4.13;1.00;;;7.10;99.90;;;;;;5074264;28;20495;-63
2023/05/26 03:00:17;;;;;;;6.68;1.58;;;7.10;99.90;;;;;;5056101;28;20131;-62
2023/05/26 03:02:43;;;;;;;7.38;1.95;;;7.10;1.00;;;;;;5073898;28;20040;-63
2023/05/26 03:05:09;;;;;;;10.15;1.27;;;7.10;29.00;;;;;;5074065;28;20032;-63
2023/05/26 03:07:34;;;;;;;1.90;1.02;;;7.00;99.90;;;;;;5074050;28;20455;-63
2023/05/26 03:10:00;;;;;;;2.65;1.58;;;7.00;99.90;;;;;;5073719;28;20431;-64
2023/05/26 03:12:26;;;;;;;6.60;1.58;;;7.40;1.00;;;;;;5055707;28;20056;-62
2023/05/26 03:14:52;;;;;;;3.05;1.42;;;7.10;99.90;;;;;;5073641;28;20083;-62
2023/05/26 03:17:17;;;;;;;5.80;1.40;;;7.60;99.90;;;;;;5073811;28;20085;-63
2023/05/26 03:19:44;;;;;;;4.38;1.25;;;7.00;99.90;;;;;;5073898;28;20040;-63
2023/05/26 03:22:10;;;;;;;5.25;1.55;;;7.10;99.90;;;;;;5073507;28;20041;-62
2023/05/26 03:24:36;;;;;;;7.82;1.85;;;7.10;23.20;;;;;;5073747;28;20029;-62
2023/05/26 03:27:02;;;;;;;6.03;1.45;;;7.20;99.90;;;;;;5073732;28;20082;-66
2023/05/26 03:29:29;;;;;;;7.57;1.88;;;7.10;99.90;;;;;;5055723;28;20512;-64
2023/05/26 03:31:55;;;;;;;11.25;1.67;;;6.90;99.90;;;;;;5073577;28;20048;-63
2023/05/26 03:34:21;;;;;;;4.55;1.52;;;7.10;99.90;;;;;;5055749;28;20067;-63
2023/05/26 03:36:48;;;;;;;8.05;1.33;;;7.10;10.60;;;;;;5073270;28;20032;-63
2023/05/26 03:39:14;;;;;;;10.70;1.85;;;7.10;1.00;;;;;;5073412;28;20507;-63
2023/05/26 03:41:40;;;;;;;7.53;1.67;;;7.10;99.90;;;;;;5073429;28;20032;-63
2023/05/26 03:44:06;;;;;;;5.13;1.40;;;7.10;1.00;;;;;;5073368;28;20036;-63
2023/05/26 03:46:32;;;;;;;8.90;1.30;;;7.20;99.90;;;;;;5072678;28;20500;-63
2023/05/26 03:48:58;;;;;;;7.15;1.98;;;6.90;99.90;;;;;;5073361;28;20040;-63
2023/05/26 03:51:24;;;;;;;10.73;1.67;;;7.20;1.00;;;;;;5073255;28;20045;-63
2023/05/26 03:53:50;;;;;;;8.30;1.55;;;7.20;99.90;;;;;;5054997;28;20127;-64
2023/05/26 03:56:15;;;;;;;12.07;2.05;;;7.10;3.80;;;;;;5073028;28;20082;-64
2023/05/26 03:58:41;;;;;;;10.40;1.55;;;7.10;99.90;;;;;;5073118;28;20480;-63
2023/05/26 04:01:07;;;;;;;3.72;1.13;;;7.10;99.90;;;;;;5054931;28;20047;-63
2023/05/26 04:03:33;;;;;;;8.40;2.03;;;7.20;99.90;;;;;;5072823;28;20036;-63
2023/05/26 04:06:00;;;;;;;6.00;1.67;;;7.10;99.90;;;;;;5072897;28;20036;-64
2023/05/26 04:08:26;;;;;;;4.47;1.05;;;7.00;99.90;;;;;;5054774;28;20044;-63
2023/05/26 04:10:55;;;;;;;10.57;1.55;;;7.10;99.90;;;;;;5072724;28;20040;-63
2023/05/26 04:13:20;;;;;;;7.35;1.55;;;7.20;99.90;;;;;;5072620;28;20101;-63
2023/05/26 04:15:50;;;;;;;4.95;1.17;;;7.20;99.90;;;;;;5073025;28;20179;-63
2023/05/26 04:18:15;;;;;;;6.32;2.03;;;7.00;96.80;;;;;;5072589;28;20048;-63
2023/05/26 04:20:41;;;;;;;6.10;1.75;;;7.00;1.00;;;;;;5072954;28;20040;-63
2023/05/26 04:23:06;;;;;;;5.15;2.15;;;7.20;1.00;;;;;;5072653;28;20392;-63
2023/05/26 04:25:33;;;;;;;6.72;1.45;;;7.30;1.00;;;;;;5054995;28;20074;-63
2023/05/26 04:27:58;;;;;;;6.20;1.50;;;7.30;1.00;;;;;;5072903;28;20049;-63
2023/05/26 04:30:24;;;;;;;12.98;2.08;;;7.60;99.90;;;;;;5072888;28;20043;-63
2023/05/26 04:32:50;;;;;;;10.88;1.60;;;7.30;99.90;;;;;;5072834;28;20043;-63
2023/05/26 04:35:17;;;;;;;16.35;2.15;;;7.60;1.00;;;;;;5072835;28;20528;-64
2023/05/26 04:37:43;;;;;;;4.40;1.40;;;7.60;99.90;;;;;;5072756;28;20037;-64
2023/05/26 04:40:09;;;;;;;3.88;1.40;;;7.50;99.90;;;;;;5072864;28;20047;-65
2023/05/26 04:42:36;;;;;;;3.97;1.20;;;7.70;37.80;;;;;;5072765;28;20036;-64
2023/05/26 04:45:03;;;;;;;13.20;1.63;;;7.80;1.00;;;;;;5072389;28;20040;-64
2023/05/26 04:47:32;;;;;;;10.80;1.63;;;7.90;1.00;;;;;;5072743;28;20036;-63
2023/05/26 04:49:59;;;;;;;12.70;1.70;;;7.90;1.00;;;;;;5072771;28;20047;-63
2023/05/26 04:52:25;;;;;;;8.77;1.67;;;8.00;99.90;;;;;;5072697;28;20527;-64
2023/05/26 04:54:51;;;;;;;7.93;2.00;;;8.10;1.00;;;;;;5054857;28;20044;-63
2023/05/26 04:57:16;;;;;;;4.88;1.40;;;8.20;99.90;;;;;;5074347;28;20048;-63
2023/05/26 04:59:43;;;;;;;8.52;1.77;;;8.30;1.00;;;;;;5076291;28;20041;-63
2023/05/26 05:02:08;;;;;;;6.65;2.08;;;8.40;99.90;;;;;;5076297;28;20051;-64
2023/05/26 05:04:34;;;;;;;9.50;1.83;;;8.40;99.90;;;;;;5076486;28;20036;-63
2023/05/26 05:07:00;;;;;;;8.95;1.65;;;8.40;99.90;;;;;;5076529;28;20436;-64
2023/05/26 05:09:25;;;;;;;5.82;1.50;;;8.60;99.90;;;;;;5076026;28;20121;-63
2023/05/26 05:11:51;;;;;;;6.15;1.75;;;8.60;1.00;;;;;;5075980;28;20083;-63
2023/05/26 05:14:17;;;;;;;8.07;1.30;;;;;;;;;;5076215;28;20549;-63
2023/05/26 05:16:42;;;;;;;5.88;1.60;;;8.80;15.90;;;;;;5076246;28;20040;-64
2023/05/26 05:19:08;;;;;;;4.90;1.33;;;8.90;99.90;;;;;;5041398;28;20060;-63
2023/05/26 05:21:33;;;;;;;7.68;1.63;;;8.90;99.90;;;;;;5076127;28;20037;-64
2023/05/26 05:23:59;;;;;;;4.63;1.10;;;9.80;99.90;;;;;;5076146;28;20041;-64
2023/05/26 05:26:25;;;;;;;3.83;1.27;;;9.10;1.00;;;;;;5057982;28;20048;-64
2023/05/26 05:28:51;;;;;;;9.43;2.03;;;9.20;99.90;;;;;;5076044;28;20058;-64
2023/05/26 05:31:16;;;;;;;7.15;1.20;;;9.30;84.10;;;;;;5075585;28;20036;-63
2023/05/26 05:33:43;;;;;;;9.27;1.77;;;9.30;1.00;;;;;;5075950;28;20050;-64
2023/05/26 05:36:09;;;;;;;11.07;2.15;;;9.80;1.00;;;;;;5075575;28;20047;-64
2023/05/26 05:38:34;;;;;;;8.75;1.95;;;9.50;1.00;;;;;;5057455;28;20040;-64
2023/05/26 05:41:00;;;;;;;6.22;1.90;;;9.70;99.90;;;;;;5075710;28;20547;-64
2023/05/26 05:43:28;;;;;;;7.25;1.45;;;9.70;1.00;;;;;;5075672;28;20043;-64
2023/05/26 05:45:54;;;;;;;10.75;1.75;;;9.80;99.90;;;;;;5075691;28;20075;-64
2023/05/26 05:48:20;;;;;;;8.80;1.60;;;9.90;99.90;;;;;;5075573;28;20045;-64
2023/05/26 05:50:45;;;;;;;5.43;1.55;;;10.00;99.90;;;;;;5075530;28;20036;-63
2023/05/26 05:53:11;;;;;;;10.10;2.28;;;10.10;99.90;;;;;;5075571;28;20041;-64
2023/05/26 05:55:39;;;;;;;7.85;1.55;;;10.30;99.90;;;;;;5075205;28;20053;-64
2023/05/26 05:58:05;;;;;;;8.25;1.35;;;10.70;1.00;;;;;;5075405;28;20036;-64
2023/05/26 06:00:31;;;;;;;12.50;1.70;;;10.50;1.00;;;;;;5057157;28;20044;-63
2023/05/26 06:02:56;;;;;;;9.38;1.27;;;10.60;99.90;;;;;;5057137;28;20036;-64
2023/05/26 06:05:22;;;;;;;8.27;1.95;;;10.80;99.90;;;;;;5057243;28;20139;-64
2023/05/26 06:07:48;;;;;;;5.00;1.60;;;10.80;99.90;;;;;;5074548;28;20040;-64
2023/05/26 06:10:13;;;;;;;4.03;1.42;;;11.00;99.90;;;;;;5057354;28;20533;-64
2023/05/26 06:12:39;;;;;;;9.98;1.60;;;11.00;99.90;;;;;;5074884;28;20087;-65
2023/05/26 06:15:05;;;;;;;6.85;2.47;;;11.10;99.90;;;;;;5075108;28;20051;-63
2023/05/26 06:17:31;;;;;;;9.73;2.30;;;11.10;99.90;;;;;;5074603;28;20120;-64
2023/05/26 06:19:57;;;;;;;7.60;1.73;;;11.20;99.90;;;;;;5075039;28;20119;-63
2023/05/26 06:22:22;;;;;;;2.90;1.30;;;11.30;99.90;;;;;;5074908;28;20047;-65
2023/05/26 06:24:48;;;;;;;7.47;1.83;;;11.70;99.90;;;;;;5074925;28;20037;-64
2023/05/26 06:27:14;;;;;;;8.02;1.52;;;11.10;99.90;;;;;;5074865;28;20032;-63
2023/05/26 06:29:39;;;;;;;4.95;1.27;;;11.60;99.90;;;;;;5074941;28;20477;-64
2023/05/26 06:32:05;;;;;;;6.43;1.02;;;11.50;99.90;;;;;;5074696;28;20040;-63
2023/05/26 06:34:30;;;;;;;2.95;0.70;;;11.70;99.90;;;;;;5056405;28;20426;-66
2023/05/26 06:36:56;;;;;;;2.28;1.08;;;11.70;99.90;;;;;;5074692;28;20578;-64
2023/05/26 06:39:24;;;;;;;7.22;1.25;;;12.00;99.90;;;;;;5074532;28;20040;-67
2023/05/26 06:41:50;;;;;;;5.53;1.60;;;11.80;99.90;;;;;;5074571;28;20122;-63
2023/05/26 06:44:16;;;;;;;14.65;1.55;;;12.00;99.90;;;;;;5074121;28;20501;-66
2023/05/26 06:46:42;;;;;;;11.85;2.13;;;12.00;99.90;;;;;;5056492;28;20032;-63
2023/05/26 06:49:07;;;;;;;7.20;1.30;;;12.20;99.90;;;;;;5074297;28;20395;-65
2023/05/26 06:51:33;;;;;;;13.65;1.85;;;12.10;99.90;;;;;;5056158;28;20136;-71
2023/05/26 06:53:58;;;;;;;3.50;1.40;;;12.20;99.90;;;;;;5056337;28;20063;-63
2023/05/26 06:56:26;;;;;;;5.75;1.73;;;12.30;99.90;;;;;;5074226;28;20044;-63
2023/05/26 06:58:52;;;;;;;10.13;2.22;;;12.30;99.90;;;;;;5074198;28;20396;-63
2023/05/26 07:01:17;;;;;;;7.07;1.70;;;12.40;99.90;;;;;;5055857;28;20071;-63
2023/05/26 07:03:43;;;;;;;3.25;1.20;;;12.30;99.90;;;;;;5074113;28;20032;-64
2023/05/26 07:06:09;;;;;;;14.27;2.38;;;12.20;99.90;;;;;;5074136;28;20028;-64
2023/05/26 07:08:34;;;;;;;9.23;2.20;;;12.10;99.90;;;;;;5072868;28;20537;-64
2023/05/26 07:11:00;;;;;;;7.15;1.95;;;12.20;99.90;;;;;;5073773;28;20074;-64
2023/05/26 07:13:26;;;;;;;5.20;2.50;;;12.30;99.90;;;;;;5073569;28;20052;-65
2023/05/26 07:15:51;;;;;;;7.38;2.40;;;12.50;99.90;;;;;;5055757;28;20106;-63
2023/05/26 07:18:17;;;;;;;9.02;2.25;;;12.70;99.90;;;;;;5055608;28;20044;-65
2023/05/26 07:20:43;;;;;;;8.73;2.60;;;12.80;99.90;;;;;;5039462;28;20044;-64
2023/05/26 07:23:08;;;;;;;4.80;2.17;;;13.30;99.90;;;;;;5073801;28;20112;-64
2023/05/26 07:25:34;;;;;;;5.88;1.75;;;13.20;99.90;;;;;;5073453;28;20033;-64
2023/05/26 07:27:59;;;;;;;4.82;1.52;;;13.20;99.90;;;;;;5072247;28;20051;-64
2023/05/26 07:30:25;;;;;;;4.13;1.70;;;13.90;1.00;;;;;;5073905;28;20033;-64
2023/05/26 07:32:51;;;;;;;7.30;2.63;;;13.40;97.40;;;;;;5073623;28;20086;-64
2023/05/26 07:35:17;;;;;;;9.32;1.48;;;13.40;95.10;;;;;;5055653;28;20047;-66
2023/05/26 07:37:42;;;;;;;5.25;1.60;;;13.50;92.10;;;;;;5055742;28;20528;-69
2023/05/26 07:40:08;;;;;;;3.22;1.00;;;13.60;99.90;;;;;;5073506;28;20040;-64
2023/05/26 07:42:34;;;;;;;7.85;1.00;;;13.90;99.90;;;;;;5055308;28;20052;-63
2023/05/26 07:45:01;;;;;;;10.48;1.00;;;14.20;99.90;;;;;;5055318;28;20502;-63
2023/05/26 07:47:31;;;;;;;6.25;1.60;;;13.80;99.90;;;;;;5055505;28;20082;-63
2023/05/26 07:49:58;;;;;;;8.13;1.52;;;14.30;99.90;;;;;;5073077;28;20124;-63
2023/05/26 07:52:24;;;;;;;4.35;1.00;;;14.20;99.90;;;;;;5072001;28;20036;-63
2023/05/26 07:54:50;;;;;;;7.38;1.45;;;14.20;99.90;;;;;;5072932;28;20036;-63
2023/05/26 07:57:15;;;;;;;8.40;1.55;;;14.20;99.90;;;;;;5054943;28;20535;-63
2023/05/26 07:59:41;;;;;;;2.47;0.93;;;15.00;99.90;;;;;;5055026;28;20048;-63
2023/05/26 08:02:07;;;;;;;4.28;1.33;;;14.20;99.90;;;;;;5072719;28;20074;-63
2023/05/26 08:04:32;;;;;;;4.38;1.05;;;13.90;99.90;;;;;;5072863;28;20043;-64
2023/05/26 08:06:58;;;;;;;4.30;1.55;;;14.30;99.90;;;;;;5072828;28;20071;-63
2023/05/26 08:09:24;;;;;;;10.32;1.30;;;14.40;99.90;;;;;;5073065;28;20120;-63
2023/05/26 08:11:50;;;;;;;4.90;1.15;;;14.30;24.90;;;;;;5054782;28;20087;-64
2023/05/26 08:14:15;;;;;;;3.30;1.30;;;14.30;37.20;;;;;;5072946;28;20496;-63
2023/05/26 08:16:41;;;;;;;5.80;1.20;;;14.40;33.70;;;;;;5072969;28;20636;-63
2023/05/26 08:19:07;;;;;;;3.90;1.20;;;14.50;36.30;;;;;;5072911;28;20040;-63
2023/05/26 08:21:33;;;;;;;5.70;1.48;;;14.50;27.10;;;;;;5055089;28;20044;-63
2023/05/26 08:23:58;;;;;;;6.40;0.80;;;14.80;26.20;;;;;;5073007;28;20032;-63
2023/05/26 08:26:25;;;;;;;4.13;0.85;;;14.60;29.70;;;;;;5072876;28;20072;-63
2023/05/26 08:28:50;;;;;;;3.60;1.42;;;14.60;24.70;;;;;;5072958;28;20048;-63
2023/05/26 08:31:16;;;;;;;6.03;1.23;;;14.60;28.80;;;;;;5072405;28;20033;-63
2023/05/26 08:33:41;;;;;;;5.93;1.70;;;15.10;27.70;;;;;;5054708;28;20064;-63
2023/05/26 08:36:07;;;;;;;8.48;1.35;;;14.70;29.90;;;;;;5054960;28;20480;-63
2023/05/26 08:38:33;;;;;;;5.05;0.95;;;14.80;29.90;;;;;;5054642;28;20051;-63
2023/05/26 08:41:03;;;;;;;4.03;1.70;;;14.80;26.40;;;;;;5054623;28;20049;-63
2023/05/26 08:43:52;;;;;;;4.68;1.02;;;14.70;24.80;;;;;;5055427;28;20056;-63
2023/05/26 08:46:19;;;;;;;6.15;1.25;;;14.80;27.30;;;;;;5072842;28;20428;-63
2023/05/26 08:48:46;;;;;;;4.88;1.40;;;14.90;25.60;;;;;;5072791;28;20046;-63
2023/05/26 08:51:12;;;;;;;4.10;1.27;;;15.20;28.50;;;;;;5072746;28;20044;-63
2023/05/26 08:53:39;;;;;;;8.02;1.25;;;14.90;25.10;;;;;;5072713;28;20052;-63
2023/05/26 08:56:07;;;;;;;4.03;1.30;;;14.90;27.30;;;;;;5072632;28;20048;-63
2023/05/26 08:58:34;;;;;;;5.35;1.52;;;15.10;23.70;;;;;;5072536;28;20412;-63
2023/05/26 09:01:01;;;;;;;7.78;1.05;;;15.00;22.50;;;;;;5054346;28;20082;-63
2023/05/26 09:03:31;;;;;;;7.75;2.05;;;15.20;25.70;;;;;;5054266;28;20047;-63
2023/05/26 09:05:56;;;;;;;6.75;1.20;;;15.30;21.80;;;;;;5072560;28;20028;-63
2023/05/26 09:08:22;;;;;;;3.85;1.23;;;15.20;21.90;;;;;;5072470;28;20068;-63
2023/05/26 09:10:48;;;;;;;4.78;1.45;;;14.90;19.00;;;;;;5072541;28;20048;-63
2023/05/26 09:13:17;;;;;;;4.40;0.98;;;15.20;19.70;;;;;;5072032;28;20045;-63
2023/05/26 09:15:48;;;;;;;6.07;1.42;;;15.60;21.30;;;;;;5072186;28;20052;-66
2023/05/26 09:18:14;;;;;;;7.95;1.42;;;15.30;20.10;;;;;;5072318;28;20037;-63
2023/05/26 09:20:45;;;;;;;4.97;1.00;;;15.60;99.90;;;;;;5054276;28;20399;-63
2023/05/26 09:23:11;;;;;;;;;;;15.60;99.90;;;;;;5072843;28;20473;-63
2023/05/26 09:25:43;;;;;;;5.68;1.13;;;15.70;99.90;;;;;;5072223;28;20360;-63
2023/05/26 09:28:14;;;;;;;6.30;1.42;;;16.00;99.90;;;;;;5054158;28;20080;-63
2023/05/26 09:30:45;;;;;;;5.63;1.60;;;15.80;99.90;;;;;;5054130;28;20044;-63
2023/05/26 09:33:14;;;;;;;4.90;1.35;;;15.70;76.40;;;;;;5072347;28;20036;-63
2023/05/26 09:35:42;;;;;;;2.42;1.02;;;16.00;99.90;;;;;;5072237;28;20087;-63
2023/05/26 09:38:09;;;;;;;5.18;1.00;;;15.70;99.90;;;;;;5071942;28;20416;-63
2023/05/26 09:40:43;;;;;;;10.27;1.65;;;16.50;98.90;;;;;;5071864;28;20037;-63
2023/05/26 09:43:09;;;;;;;4.57;1.08;;;15.80;37.80;;;;;;5072528;28;20446;-63
2023/05/26 09:45:36;;;;;;;2.97;1.13;;;15.60;80.20;;;;;;5075752;28;20036;-63
2023/05/26 09:48:07;;;;;;;6.15;1.30;;;15.90;86.00;;;;;;5057822;28;20040;-63
2023/05/26 09:50:34;;;;;;;3.10;1.00;;;15.90;66.80;;;;;;5075618;28;20067;-63
2023/05/26 09:53:03;;;;;;;3.25;1.48;;;16.10;25.90;;;;;;5075368;28;20115;-63
2023/05/26 09:55:30;;;;;;;3.63;1.25;;;16.10;23.60;;;;;;5075060;28;20040;-63
2023/05/26 09:58:05;;;;;;;3.42;0.90;;;16.70;23.80;;;;;;5075001;28;20039;-63
2023/05/26 10:00:33;;;;;;;4.78;1.23;;;16.20;21.90;;;;;;5075292;28;20060;-63
2023/05/26 10:03:03;;;;;;;3.63;1.48;;;16.10;21.10;;;;;;5075286;28;20091;-64
2023/05/26 10:05:31;;;;;;;3.90;1.75;;;17.00;21.20;;;;;;5075000;28;20396;-63
2023/05/26 10:07:58;;;;;;;4.90;1.10;;;16.10;18.30;;;;;;5075271;28;20043;-63
2023/05/26 10:10:25;;;;;;;2.28;1.02;;;16.20;21.30;;;;;;5075195;28;20400;-63
2023/05/26 10:12:51;;;;;;;4.88;0.98;;;16.30;21.70;;;;;;5074851;28;20119;-63
2023/05/26 10:15:17;;;;;;;4.25;1.23;;;16.30;21.60;;;;;;5075128;28;20127;-63
2023/05/26 10:17:43;;;;;;;6.68;1.45;;;16.30;33.80;;;;;;5057118;28;20041;-63
2023/05/26 10:20:09;;;;;;;4.05;1.58;;;16.40;23.80;;;;;;5074823;28;20080;-63
2023/05/26 10:22:47;;;;;;;5.07;1.42;;;16.30;22.90;;;;;;5075088;28;20075;-63
2023/05/26 10:26:03;;;;;;;3.65;0.98;;;16.20;22.00;;;;;;5075044;28;20123;-65
2023/05/26 10:28:46;;;;;;;5.53;0.95;;;16.00;18.70;;;;;;5050692;28;20052;-63
2023/05/26 10:31:31;;;;;;;4.88;1.00;;;16.00;19.50;;;;;;5074788;28;20044;-63
2023/05/26 10:33:57;;;;;;;5.75;1.33;;;16.10;19.50;;;;;;5074766;28;20119;-62
2023/05/26 10:36:23;;;;;;;5.00;1.60;;;16.00;19.10;;;;;;5056665;28;20093;-63
2023/05/26 10:38:53;;;;;;;2.67;0.90;;;16.00;19.50;;;;;;5056374;28;20040;-63
2023/05/26 10:41:33;;;;;;;2.28;1.13;;;16.10;20.50;;;;;;5039846;28;20036;-63
2023/05/26 10:44:00;;;;;;;8.13;1.48;;;16.00;20.00;;;;;;5074590;28;20362;-62
2023/05/26 10:47:03;;;;;;;1.50;0.88;;;16.10;20.20;;;;;;5074387;28;20047;-62
2023/05/26 10:49:34;;;;;;;6.82;1.65;;;16.10;19.40;;;;;;5032302;28;20048;-63
2023/05/26 10:52:10;;;;;;;3.50;1.40;;;16.80;20.00;;;;;;5074183;28;20097;-62
2023/05/26 10:54:35;;;;;;;3.90;1.50;;;16.20;20.40;;;;;;5073849;28;20079;-62
2023/05/26 10:57:01;;;;;;;3.47;1.70;;;16.10;20.30;;;;;;5074417;28;20032;-62
2023/05/26 10:59:32;;;;;;;2.55;1.25;;;16.20;19.80;;;;;;5074246;28;20420;-63
2023/05/26 11:02:03;;;;;;;6.45;1.20;;;16.20;21.10;;;;;;5074033;28;20059;-62
2023/05/26 11:04:41;;;;;;;3.85;1.13;;;16.30;22.10;;;;;;5074235;28;20037;-62
2023/05/26 11:07:14;;;;;;;3.33;1.40;;;16.20;17.80;;;;;;5074263;28;20603;-62
2023/05/26 11:09:56;;;;;;;2.90;1.08;;;16.10;18.10;;;;;;5055947;28;20051;-62
2023/05/26 11:12:22;;;;;;;5.13;1.27;;;16.30;17.30;;;;;;5073860;28;20272;-63
2023/05/26 11:14:48;;;;;;;4.25;1.48;;;16.20;19.20;;;;;;5074085;28;20059;-62
2023/05/26 11:17:18;;;;;;;4.43;1.17;;;16.20;28.80;;;;;;5073959;28;20094;-62
2023/05/26 11:19:54;;;;;;;3.08;1.13;;;16.20;19.80;;;;;;5056021;28;20484;-62
2023/05/26 11:22:23;;;;;;;2.40;1.02;;;17.50;18.90;;;;;;5055916;28;20048;-62
2023/05/26 11:24:51;;;;;;;3.83;1.40;;;16.30;18.40;;;;;;5056005;28;20040;-62
2023/05/26 11:27:17;;;;;;;7.15;1.58;;;16.30;15.30;;;;;;5073465;28;20115;-62
2023/05/26 11:29:45;;;;;;;5.32;1.13;;;16.20;17.90;;;;;;5073395;28;20071;-63
2023/05/26 11:32:12;;;;;;;3.80;1.55;;;16.70;16.00;;;;;;5073278;28;20032;-63
2023/05/26 11:34:38;;;;;;;4.72;1.50;;;15.80;16.80;;;;;;5073631;28;20043;-62
2023/05/26 11:37:08;;;;;;;5.60;1.38;;;16.70;22.40;;;;;;5072644;28;20041;-63
2023/05/26 11:39:36;;;;;;;4.72;1.23;;;16.20;16.90;;;;;;5073089;28;20040;-63
2023/05/26 11:42:10;;;;;;;1.92;0.90;;;16.30;19.50;;;;;;5039412;28;20083;-62
2023/05/26 11:44:36;;;;;;;4.93;1.30;;;16.40;19.90;;;;;;5073450;28;20074;-63
2023/05/26 11:47:02;;;;;;;2.33;0.93;;;16.40;17.90;;;;;;5055291;28;20044;-63
2023/05/26 11:49:27;;;;;;;5.07;1.15;;;16.40;19.10;;;;;;5055233;28;20484;-62
2023/05/26 11:51:53;;;;;;;4.10;1.13;;;16.50;19.80;;;;;;5055484;28;20545;-62
2023/05/26 11:54:19;;;;;;;6.07;1.25;;;16.50;18.10;;;;;;5071853;28;20099;-62
2023/05/26 11:56:47;;;;;;;3.33;1.15;;;16.40;17.80;;;;;;5073308;28;20585;-64
2023/05/26 11:59:17;;;;;;;7.22;1.40;;;16.40;19.20;;;;;;5073226;28;20037;-63
2023/05/26 12:01:43;;;;;;;6.22;1.20;;;16.50;19.30;;;;;;5055131;28;20057;-65
2023/05/26 12:04:09;;;;;;;6.22;1.23;;;16.40;17.20;;;;;;5073141;28;20047;-62
2023/05/26 12:06:40;;;;;;;5.93;1.73;;;16.40;16.30;;;;;;5072464;28;20036;-63
2023/05/26 12:09:17;;;;;;;6.75;1.33;;;16.30;15.10;;;;;;5054772;28;20051;-62
2023/05/26 12:11:46;;;;;;;3.13;1.13;;;16.50;17.30;;;;;;5072925;28;20096;-62
2023/05/26 12:14:12;;;;;;;4.93;2.08;;;16.50;17.70;;;;;;5073096;28;20052;-62
2023/05/26 12:16:43;;;;;;;5.55;1.27;;;16.40;16.80;;;;;;5073085;28;20496;-62
2023/05/26 12:19:10;;;;;;;;;;;16.50;21.30;;;;;;5073381;28;20123;-62
2023/05/26 12:21:45;;;;;;;6.13;1.30;;;16.50;16.70;;;;;;5072960;28;19921;-62
2023/05/26 12:24:11;;;;;;;4.30;1.10;;;16.40;15.80;;;;;;5072972;28;20369;-62
2023/05/26 12:26:38;;;;;;;3.70;1.33;;;16.30;14.10;;;;;;5072880;28;20032;-62
2023/05/26 12:29:11;;;;;;;3.33;1.15;;;16.30;16.40;;;;;;5072909;28;20492;-62
2023/05/26 12:31:43;;;;;;;3.40;1.73;;;16.40;16.40;;;;;;5055344;28;20045;-63
2023/05/26 12:34:10;;;;;;;8.43;2.13;;;16.40;14.50;;;;;;5072886;28;20047;-63
2023/05/26 12:36:36;;;;;;;3.88;0.90;;;16.40;15.40;;;;;;5072729;28;20094;-65
2023/05/26 12:39:03;;;;;;;11.68;2.28;;;16.30;13.20;;;;;;5072810;28;20488;-63
2023/05/26 12:41:29;;;;;;;3.88;1.77;;;16.40;12.90;;;;;;5054509;28;20079;-62
2023/05/26 12:43:54;;;;;;;6.53;1.80;;;17.00;14.10;;;;;;5072493;28;20527;-63
2023/05/26 12:46:20;;;;;;;3.45;1.33;;;16.50;14.20;;;;;;5072793;28;20123;-62
2023/05/26 12:48:46;;;;;;;3.15;1.20;;;16.60;15.20;;;;;;5072473;28;20083;-63
2023/05/26 12:51:15;;;;;;;5.18;1.38;;;16.60;15.00;;;;;;5072385;28;20507;-64
2023/05/26 12:53:45;;;;;;;3.88;1.48;;;16.40;12.10;;;;;;5072490;28;20040;-64